sensor_id;sensor_type;location;lat;lon;timestamp;P1;durP1;ratioP1;P2;durP2;ratioP2
85559;SDS011;76003;49.038;16.594;2024-03-07T00:02:33;16.05;;;7.88;;
85559;SDS011;76003;49.038;16.594;2024-03-07T00:05:14;17.00;;;7.82;;
85559;SDS011;76003;49.038;16.594;2024-03-07T00:07:55;17.58;;;8.15;;
85559;SDS011;76003;49.038;16.594;2024-03-07T00:10:21;13.75;;;8.38;;
85559;SDS011;76003;49.038;16.594;2024-03-07T00:13:09;16.42;;;8.27;;
85559;SDS011;76003;49.038;16.594;2024-03-07T00:15:50;13.90;;;7.28;;
85559;SDS011;76003;49.038;16.594;2024-03-07T00:18:19;14.43;;;7.05;;
85559;SDS011;76003;49.038;16.594;2024-03-07T00:21:05;18.33;;;7.50;;
85559;SDS011;76003;49.038;16.594;2024-03-07T00:23:46;13.57;;;7.72;;
85559;SDS011;76003;49.038;16.594;2024-03-07T00:28:52;15.48;;;7.68;;
85559;SDS011;76003;49.038;16.594;2024-03-07T00:33:59;13.32;;;7.10;;
85559;SDS011;76003;49.038;16.594;2024-03-07T00:36:46;12.70;;;6.63;;
85559;SDS011;76003;49.038;16.594;2024-03-07T00:40:11;15.90;;;7.82;;
85559;SDS011;76003;49.038;16.594;2024-03-07T00:43:37;17.33;;;8.05;;
85559;SDS011;76003;49.038;16.594;2024-03-07T00:46:03;13.50;;;7.82;;
85559;SDS011;76003;49.038;16.594;2024-03-07T00:49:08;15.25;;;6.60;;
85559;SDS011;76003;49.038;16.594;2024-03-07T00:51:49;15.75;;;6.60;;
85559;SDS011;76003;49.038;16.594;2024-03-07T00:54:15;14.88;;;8.30;;
85559;SDS011;76003;49.038;16.594;2024-03-07T00:57:02;13.23;;;7.90;;
85559;SDS011;76003;49.038;16.594;2024-03-07T00:59:42;13.10;;;6.40;;
85559;SDS011;76003;49.038;16.594;2024-03-07T01:02:23;14.90;;;7.60;;
85559;SDS011;76003;49.038;16.594;2024-03-07T01:05:05;12.48;;;7.00;;
85559;SDS011;76003;49.038;16.594;2024-03-07T01:07:50;14.70;;;7.45;;
85559;SDS011;76003;49.038;16.594;2024-03-07T01:10:15;16.92;;;7.78;;
85559;SDS011;76003;49.038;16.594;2024-03-07T01:13:02;13.68;;;7.65;;
85559;SDS011;76003;49.038;16.594;2024-03-07T01:15:31;12.95;;;7.43;;
85559;SDS011;76003;49.038;16.594;2024-03-07T01:18:34;15.85;;;7.80;;
85559;SDS011;76003;49.038;16.594;2024-03-07T01:21:00;17.25;;;8.85;;
85559;SDS011;76003;49.038;16.594;2024-03-07T01:24:04;17.15;;;6.93;;
85559;SDS011;76003;49.038;16.594;2024-03-07T01:27:30;14.45;;;7.13;;
85559;SDS011;76003;49.038;16.594;2024-03-07T01:29:56;17.55;;;7.07;;
85559;SDS011;76003;49.038;16.594;2024-03-07T01:32:42;11.68;;;6.57;;
85559;SDS011;76003;49.038;16.594;2024-03-07T01:35:23;13.98;;;7.13;;
85559;SDS011;76003;49.038;16.594;2024-03-07T01:40:44;15.48;;;6.97;;
85559;SDS011;76003;49.038;16.594;2024-03-07T01:43:25;13.48;;;6.70;;
85559;SDS011;76003;49.038;16.594;2024-03-07T01:45:52;12.10;;;7.07;;
85559;SDS011;76003;49.038;16.594;2024-03-07T01:49:39;14.25;;;6.45;;
85559;SDS011;76003;49.038;16.594;2024-03-07T01:52:05;14.25;;;7.00;;
85559;SDS011;76003;49.038;16.594;2024-03-07T01:55:07;12.15;;;6.55;;
85559;SDS011;76003;49.038;16.594;2024-03-07T01:57:35;10.18;;;5.82;;
85559;SDS011;76003;49.038;16.594;2024-03-07T02:00:38;11.15;;;5.63;;
85559;SDS011;76003;49.038;16.594;2024-03-07T02:06:29;11.98;;;5.68;;
85559;SDS011;76003;49.038;16.594;2024-03-07T02:09:16;11.15;;;5.85;;
85559;SDS011;76003;49.038;16.594;2024-03-07T02:11:42;13.65;;;6.68;;
85559;SDS011;76003;49.038;16.594;2024-03-07T02:14:23;13.25;;;5.70;;
85559;SDS011;76003;49.038;16.594;2024-03-07T02:16:49;12.05;;;6.65;;
85559;SDS011;76003;49.038;16.594;2024-03-07T02:19:14;12.40;;;6.55;;
85559;SDS011;76003;49.038;16.594;2024-03-07T02:21:56;10.40;;;5.30;;
85559;SDS011;76003;49.038;16.594;2024-03-07T02:27:02;11.68;;;5.70;;
85559;SDS011;76003;49.038;16.594;2024-03-07T02:29:49;11.73;;;6.00;;
85559;SDS011;76003;49.038;16.594;2024-03-07T02:32:16;9.40;;;5.20;;
85559;SDS011;76003;49.038;16.594;2024-03-07T02:34:58;8.35;;;5.10;;
85559;SDS011;76003;49.038;16.594;2024-03-07T02:40:19;9.82;;;5.30;;
85559;SDS011;76003;49.038;16.594;2024-03-07T02:42:45;11.73;;;5.85;;
85559;SDS011;76003;49.038;16.594;2024-03-07T02:45:31;11.38;;;5.65;;
85559;SDS011;76003;49.038;16.594;2024-03-07T02:47:57;14.20;;;7.30;;
85559;SDS011;76003;49.038;16.594;2024-03-07T02:50:43;12.15;;;5.93;;
85559;SDS011;76003;49.038;16.594;2024-03-07T02:53:24;12.43;;;6.05;;
85559;SDS011;76003;49.038;16.594;2024-03-07T02:56:04;11.65;;;5.53;;
85559;SDS011;76003;49.038;16.594;2024-03-07T02:58:34;15.68;;;6.50;;
85559;SDS011;76003;49.038;16.594;2024-03-07T03:01:15;13.80;;;6.15;;
85559;SDS011;76003;49.038;16.594;2024-03-07T03:03:56;14.80;;;7.35;;
85559;SDS011;76003;49.038;16.594;2024-03-07T03:06:36;13.27;;;7.28;;
85559;SDS011;76003;49.038;16.594;2024-03-07T03:09:16;14.63;;;7.82;;
85559;SDS011;76003;49.038;16.594;2024-03-07T03:11:46;12.25;;;6.05;;
85559;SDS011;76003;49.038;16.594;2024-03-07T03:15:28;13.63;;;8.20;;
85559;SDS011;76003;49.038;16.594;2024-03-07T03:18:09;13.32;;;7.22;;
85559;SDS011;76003;49.038;16.594;2024-03-07T03:20:50;16.67;;;9.32;;
85559;SDS011;76003;49.038;16.594;2024-03-07T03:23:18;12.52;;;6.65;;
85559;SDS011;76003;49.038;16.594;2024-03-07T03:26:05;18.33;;;10.95;;
85559;SDS011;76003;49.038;16.594;2024-03-07T03:28:32;11.88;;;7.30;;
85559;SDS011;76003;49.038;16.594;2024-03-07T03:31:34;13.45;;;7.90;;
85559;SDS011;76003;49.038;16.594;2024-03-07T03:34:01;18.65;;;11.00;;
85559;SDS011;76003;49.038;16.594;2024-03-07T03:37:04;18.75;;;10.57;;
85559;SDS011;76003;49.038;16.594;2024-03-07T03:40:30;17.55;;;8.90;;
85559;SDS011;76003;49.038;16.594;2024-03-07T03:43:55;20.33;;;10.98;;
85559;SDS011;76003;49.038;16.594;2024-03-07T03:46:30;21.33;;;9.65;;
85559;SDS011;76003;49.038;16.594;2024-03-07T03:50:12;20.05;;;9.35;;
85559;SDS011;76003;49.038;16.594;2024-03-07T03:53:38;18.08;;;8.90;;
85559;SDS011;76003;49.038;16.594;2024-03-07T03:59:31;23.45;;;11.20;;
85559;SDS011;76003;49.038;16.594;2024-03-07T04:02:17;19.73;;;11.20;;
85559;SDS011;76003;49.038;16.594;2024-03-07T04:04:43;20.58;;;10.80;;
85559;SDS011;76003;49.038;16.594;2024-03-07T04:07:31;24.40;;;10.73;;
85559;SDS011;76003;49.038;16.594;2024-03-07T04:10:02;22.58;;;10.00;;
85559;SDS011;76003;49.038;16.594;2024-03-07T04:12:49;19.90;;;10.32;;
85559;SDS011;76003;49.038;16.594;2024-03-07T04:15:29;18.67;;;9.68;;
85559;SDS011;76003;49.038;16.594;2024-03-07T04:18:12;21.05;;;9.80;;
85559;SDS011;76003;49.038;16.594;2024-03-07T04:20:37;19.70;;;9.60;;
85559;SDS011;76003;49.038;16.594;2024-03-07T04:23:19;21.15;;;10.38;;
85559;SDS011;76003;49.038;16.594;2024-03-07T04:26:01;21.92;;;12.15;;
85559;SDS011;76003;49.038;16.594;2024-03-07T04:28:42;25.23;;;13.10;;
85559;SDS011;76003;49.038;16.594;2024-03-07T04:31:23;22.90;;;10.75;;
85559;SDS011;76003;49.038;16.594;2024-03-07T04:34:04;18.75;;;10.07;;
85559;SDS011;76003;49.038;16.594;2024-03-07T04:36:30;18.35;;;10.05;;
85559;SDS011;76003;49.038;16.594;2024-03-07T04:39:18;18.60;;;10.25;;
85559;SDS011;76003;49.038;16.594;2024-03-07T04:42:07;18.95;;;10.32;;
85559;SDS011;76003;49.038;16.594;2024-03-07T04:44:55;19.25;;;9.88;;
85559;SDS011;76003;49.038;16.594;2024-03-07T04:47:21;20.67;;;10.55;;
85559;SDS011;76003;49.038;16.594;2024-03-07T04:50:10;16.10;;;8.45;;
85559;SDS011;76003;49.038;16.594;2024-03-07T04:52:52;22.85;;;10.10;;
85559;SDS011;76003;49.038;16.594;2024-03-07T04:55:32;19.20;;;8.80;;
85559;SDS011;76003;49.038;16.594;2024-03-07T04:58:13;15.07;;;8.48;;
85559;SDS011;76003;49.038;16.594;2024-03-07T05:00:54;17.35;;;9.45;;
85559;SDS011;76003;49.038;16.594;2024-03-07T05:03:34;14.68;;;8.95;;
85559;SDS011;76003;49.038;16.594;2024-03-07T05:08:57;15.18;;;8.18;;
85559;SDS011;76003;49.038;16.594;2024-03-07T05:11:22;15.40;;;9.10;;
85559;SDS011;76003;49.038;16.594;2024-03-07T05:14:09;12.70;;;6.13;;
85559;SDS011;76003;49.038;16.594;2024-03-07T05:16:49;14.13;;;5.50;;
85559;SDS011;76003;49.038;16.594;2024-03-07T05:22:19;15.63;;;8.10;;
85559;SDS011;76003;49.038;16.594;2024-03-07T05:24:50;13.07;;;8.15;;
85559;SDS011;76003;49.038;16.594;2024-03-07T05:27:37;17.27;;;8.75;;
85559;SDS011;76003;49.038;16.594;2024-03-07T05:30:18;18.10;;;9.43;;
85559;SDS011;76003;49.038;16.594;2024-03-07T05:32:59;11.73;;;6.38;;
85559;SDS011;76003;49.038;16.594;2024-03-07T05:35:43;12.82;;;6.60;;
85559;SDS011;76003;49.038;16.594;2024-03-07T05:38:23;13.57;;;6.80;;
85559;SDS011;76003;49.038;16.594;2024-03-07T05:41:04;12.43;;;7.57;;
85559;SDS011;76003;49.038;16.594;2024-03-07T05:43:45;16.95;;;7.70;;
85559;SDS011;76003;49.038;16.594;2024-03-07T05:46:11;10.73;;;6.30;;
85559;SDS011;76003;49.038;16.594;2024-03-07T05:48:57;12.95;;;8.23;;
85559;SDS011;76003;49.038;16.594;2024-03-07T05:51:38;12.30;;;6.47;;
85559;SDS011;76003;49.038;16.594;2024-03-07T05:56:59;11.18;;;6.57;;
85559;SDS011;76003;49.038;16.594;2024-03-07T05:59:32;13.02;;;6.30;;
85559;SDS011;76003;49.038;16.594;2024-03-07T06:02:19;16.25;;;8.15;;
85559;SDS011;76003;49.038;16.594;2024-03-07T06:04:45;14.73;;;8.10;;
85559;SDS011;76003;49.038;16.594;2024-03-07T06:07:32;13.20;;;6.60;;
85559;SDS011;76003;49.038;16.594;2024-03-07T06:15:39;34.83;;;20.80;;
85559;SDS011;76003;49.038;16.594;2024-03-07T06:18:20;16.98;;;8.73;;
85559;SDS011;76003;49.038;16.594;2024-03-07T06:23:56;13.02;;;7.68;;
85559;SDS011;76003;49.038;16.594;2024-03-07T06:26:46;15.10;;;7.68;;
85559;SDS011;76003;49.038;16.594;2024-03-07T06:29:45;16.13;;;8.95;;
85559;SDS011;76003;49.038;16.594;2024-03-07T06:32:41;18.55;;;9.52;;
85559;SDS011;76003;49.038;16.594;2024-03-07T06:35:29;17.02;;;9.57;;
85559;SDS011;76003;49.038;16.594;2024-03-07T06:38:20;18.30;;;12.50;;
85559;SDS011;76003;49.038;16.594;2024-03-07T06:41:01;17.30;;;8.52;;
85559;SDS011;76003;49.038;16.594;2024-03-07T06:44:06;18.95;;;9.80;;
85559;SDS011;76003;49.038;16.594;2024-03-07T06:47:41;26.70;;;15.50;;
85559;SDS011;76003;49.038;16.594;2024-03-07T06:50:49;18.52;;;10.25;;
85559;SDS011;76003;49.038;16.594;2024-03-07T06:53:22;17.65;;;9.70;;
85559;SDS011;76003;49.038;16.594;2024-03-07T06:56:10;24.23;;;13.20;;
85559;SDS011;76003;49.038;16.594;2024-03-07T06:58:38;27.00;;;14.65;;
85559;SDS011;76003;49.038;16.594;2024-03-07T07:01:04;16.27;;;9.52;;
85559;SDS011;76003;49.038;16.594;2024-03-07T07:03:37;21.65;;;12.73;;
85559;SDS011;76003;49.038;16.594;2024-03-07T07:06:06;17.35;;;9.90;;
85559;SDS011;76003;49.038;16.594;2024-03-07T07:08:57;23.83;;;11.55;;
85559;SDS011;76003;49.038;16.594;2024-03-07T07:11:33;20.00;;;11.10;;
85559;SDS011;76003;49.038;16.594;2024-03-07T07:14:01;20.80;;;9.85;;
85559;SDS011;76003;49.038;16.594;2024-03-07T07:16:27;22.88;;;12.48;;
85559;SDS011;76003;49.038;16.594;2024-03-07T07:21:23;19.00;;;9.75;;
85559;SDS011;76003;49.038;16.594;2024-03-07T07:23:51;20.38;;;10.57;;
85559;SDS011;76003;49.038;16.594;2024-03-07T07:26:56;25.13;;;11.77;;
85559;SDS011;76003;49.038;16.594;2024-03-07T07:29:25;19.40;;;10.32;;
85559;SDS011;76003;49.038;16.594;2024-03-07T07:32:02;18.55;;;10.02;;
85559;SDS011;76003;49.038;16.594;2024-03-07T07:34:30;17.85;;;10.48;;
85559;SDS011;76003;49.038;16.594;2024-03-07T07:37:10;16.67;;;9.30;;
85559;SDS011;76003;49.038;16.594;2024-03-07T07:39:59;21.98;;;11.20;;
85559;SDS011;76003;49.038;16.594;2024-03-07T07:42:25;23.35;;;12.00;;
85559;SDS011;76003;49.038;16.594;2024-03-07T07:46:08;23.15;;;12.32;;
85559;SDS011;76003;49.038;16.594;2024-03-07T07:48:38;21.90;;;11.63;;
85559;SDS011;76003;49.038;16.594;2024-03-07T07:51:26;22.50;;;10.10;;
85559;SDS011;76003;49.038;16.594;2024-03-07T07:54:08;24.33;;;12.63;;
85559;SDS011;76003;49.038;16.594;2024-03-07T07:56:50;24.00;;;12.00;;
85559;SDS011;76003;49.038;16.594;2024-03-07T07:59:37;25.15;;;13.25;;
85559;SDS011;76003;49.038;16.594;2024-03-07T08:02:22;27.60;;;13.18;;
85559;SDS011;76003;49.038;16.594;2024-03-07T08:04:51;19.58;;;10.80;;
85559;SDS011;76003;49.038;16.594;2024-03-07T08:07:59;24.48;;;14.75;;
85559;SDS011;76003;49.038;16.594;2024-03-07T08:11:30;24.60;;;12.98;;
85559;SDS011;76003;49.038;16.594;2024-03-07T08:14:56;22.25;;;11.55;;
85559;SDS011;76003;49.038;16.594;2024-03-07T08:17:22;23.73;;;13.43;;
85559;SDS011;76003;49.038;16.594;2024-03-07T08:20:04;24.65;;;13.80;;
85559;SDS011;76003;49.038;16.594;2024-03-07T08:22:38;28.90;;;15.38;;
85559;SDS011;76003;49.038;16.594;2024-03-07T08:25:11;29.98;;;16.30;;
85559;SDS011;76003;49.038;16.594;2024-03-07T08:28:16;25.05;;;11.00;;
85559;SDS011;76003;49.038;16.594;2024-03-07T08:31:01;27.35;;;12.90;;
85559;SDS011;76003;49.038;16.594;2024-03-07T08:33:48;27.95;;;16.83;;
85559;SDS011;76003;49.038;16.594;2024-03-07T08:36:29;34.45;;;17.95;;
85559;SDS011;76003;49.038;16.594;2024-03-07T08:39:10;44.55;;;19.70;;
85559;SDS011;76003;49.038;16.594;2024-03-07T08:41:56;26.35;;;13.75;;
85559;SDS011;76003;49.038;16.594;2024-03-07T08:44:35;28.75;;;13.00;;
85559;SDS011;76003;49.038;16.594;2024-03-07T08:47:26;43.33;;;18.55;;
85559;SDS011;76003;49.038;16.594;2024-03-07T08:51:03;37.63;;;17.70;;
85559;SDS011;76003;49.038;16.594;2024-03-07T08:53:32;45.72;;;22.55;;
85559;SDS011;76003;49.038;16.594;2024-03-07T08:56:19;38.05;;;19.23;;
85559;SDS011;76003;49.038;16.594;2024-03-07T08:58:45;57.50;;;27.55;;
85559;SDS011;76003;49.038;16.594;2024-03-07T09:02:28;77.63;;;35.65;;
85559;SDS011;76003;49.038;16.594;2024-03-07T09:05:53;32.40;;;17.45;;
85559;SDS011;76003;49.038;16.594;2024-03-07T09:08:21;43.40;;;23.08;;
85559;SDS011;76003;49.038;16.594;2024-03-07T09:11:26;44.65;;;19.85;;
85559;SDS011;76003;49.038;16.594;2024-03-07T09:14:54;55.22;;;26.10;;
85559;SDS011;76003;49.038;16.594;2024-03-07T09:18:23;39.10;;;16.80;;
85559;SDS011;76003;49.038;16.594;2024-03-07T09:21:53;47.83;;;21.42;;
85559;SDS011;76003;49.038;16.594;2024-03-07T09:25:19;59.60;;;24.23;;
85559;SDS011;76003;49.038;16.594;2024-03-07T09:28:47;73.25;;;26.02;;
85559;SDS011;76003;49.038;16.594;2024-03-07T09:32:12;27.85;;;13.32;;
85559;SDS011;76003;49.038;16.594;2024-03-07T09:34:40;39.22;;;22.08;;
85559;SDS011;76003;49.038;16.594;2024-03-07T09:37:39;42.95;;;21.25;;
85559;SDS011;76003;49.038;16.594;2024-03-07T09:40:58;46.33;;;25.13;;
85559;SDS011;76003;49.038;16.594;2024-03-07T09:48:10;38.05;;;19.48;;
85559;SDS011;76003;49.038;16.594;2024-03-07T09:51:20;27.88;;;15.55;;
85559;SDS011;76003;49.038;16.594;2024-03-07T09:57:15;39.60;;;18.45;;
85559;SDS011;76003;49.038;16.594;2024-03-07T10:04:13;33.53;;;15.10;;
85559;SDS011;76003;49.038;16.594;2024-03-07T10:07:29;28.23;;;13.38;;
85559;SDS011;76003;49.038;16.594;2024-03-07T10:10:57;24.73;;;12.18;;
85559;SDS011;76003;49.038;16.594;2024-03-07T10:13:42;28.85;;;16.13;;
85559;SDS011;76003;49.038;16.594;2024-03-07T10:16:08;26.23;;;12.43;;
85559;SDS011;76003;49.038;16.594;2024-03-07T10:18:57;24.52;;;13.15;;
85559;SDS011;76003;49.038;16.594;2024-03-07T10:21:23;25.42;;;11.65;;
85559;SDS011;76003;49.038;16.594;2024-03-07T10:25:06;24.10;;;15.20;;
85559;SDS011;76003;49.038;16.594;2024-03-07T10:28:32;30.52;;;14.02;;
85559;SDS011;76003;49.038;16.594;2024-03-07T10:32:01;21.85;;;12.95;;
85559;SDS011;76003;49.038;16.594;2024-03-07T10:35:38;24.98;;;14.23;;
85559;SDS011;76003;49.038;16.594;2024-03-07T10:39:04;22.35;;;13.43;;
85559;SDS011;76003;49.038;16.594;2024-03-07T10:41:48;23.52;;;15.18;;
85559;SDS011;76003;49.038;16.594;2024-03-07T10:44:37;22.05;;;13.95;;
85559;SDS011;76003;49.038;16.594;2024-03-07T10:47:07;24.20;;;14.32;;
85559;SDS011;76003;49.038;16.594;2024-03-07T10:50:04;26.63;;;14.63;;
85559;SDS011;76003;49.038;16.594;2024-03-07T10:52:52;23.73;;;15.32;;
85559;SDS011;76003;49.038;16.594;2024-03-07T11:04:56;23.45;;;13.10;;
85559;SDS011;76003;49.038;16.594;2024-03-07T11:08:41;21.85;;;13.23;;
85559;SDS011;76003;49.038;16.594;2024-03-07T11:12:09;18.92;;;11.55;;
85559;SDS011;76003;49.038;16.594;2024-03-07T11:15:36;24.25;;;16.17;;
85559;SDS011;76003;49.038;16.594;2024-03-07T11:21:27;21.90;;;15.45;;
85559;SDS011;76003;49.038;16.594;2024-03-07T11:25:06;24.42;;;17.27;;
85559;SDS011;76003;49.038;16.594;2024-03-07T11:28:05;21.73;;;14.55;;
85559;SDS011;76003;49.038;16.594;2024-03-07T11:30:30;20.23;;;12.75;;
85559;SDS011;76003;49.038;16.594;2024-03-07T11:33:17;21.13;;;14.13;;
85559;SDS011;76003;49.038;16.594;2024-03-07T11:36:46;21.52;;;13.73;;
85559;SDS011;76003;49.038;16.594;2024-03-07T11:39:46;23.60;;;15.18;;
85559;SDS011;76003;49.038;16.594;2024-03-07T11:42:20;21.10;;;12.88;;
85559;SDS011;76003;49.038;16.594;2024-03-07T11:45:12;22.30;;;14.68;;
85559;SDS011;76003;49.038;16.594;2024-03-07T11:47:51;29.75;;;20.70;;
85559;SDS011;76003;49.038;16.594;2024-03-07T11:51:17;29.23;;;22.40;;
85559;SDS011;76003;49.038;16.594;2024-03-07T11:53:59;28.00;;;19.48;;
85559;SDS011;76003;49.038;16.594;2024-03-07T11:56:40;27.15;;;19.30;;
85559;SDS011;76003;49.038;16.594;2024-03-07T12:02:03;28.77;;;19.02;;
85559;SDS011;76003;49.038;16.594;2024-03-07T12:04:44;25.50;;;14.75;;
85559;SDS011;76003;49.038;16.594;2024-03-07T12:07:12;29.67;;;20.38;;
85559;SDS011;76003;49.038;16.594;2024-03-07T12:09:58;26.95;;;18.55;;
85559;SDS011;76003;49.038;16.594;2024-03-07T12:12:40;30.52;;;17.10;;
85559;SDS011;76003;49.038;16.594;2024-03-07T12:15:22;26.77;;;18.42;;
85559;SDS011;76003;49.038;16.594;2024-03-07T12:17:49;31.00;;;22.33;;
85559;SDS011;76003;49.038;16.594;2024-03-07T12:20:36;27.08;;;15.75;;
85559;SDS011;76003;49.038;16.594;2024-03-07T12:23:06;33.03;;;21.05;;
85559;SDS011;76003;49.038;16.594;2024-03-07T12:26:01;32.33;;;22.23;;
85559;SDS011;76003;49.038;16.594;2024-03-07T12:28:28;28.77;;;16.38;;
85559;SDS011;76003;49.038;16.594;2024-03-07T12:32:15;27.63;;;18.00;;
85559;SDS011;76003;49.038;16.594;2024-03-07T12:35:40;35.88;;;24.70;;
85559;SDS011;76003;49.038;16.594;2024-03-07T12:39:09;37.42;;;25.02;;
85559;SDS011;76003;49.038;16.594;2024-03-07T12:41:57;33.17;;;21.55;;
85559;SDS011;76003;49.038;16.594;2024-03-07T12:44:44;27.80;;;16.73;;
85559;SDS011;76003;49.038;16.594;2024-03-07T12:48:13;31.45;;;16.30;;
85559;SDS011;76003;49.038;16.594;2024-03-07T12:51:39;33.85;;;20.70;;
85559;SDS011;76003;49.038;16.594;2024-03-07T12:54:07;36.15;;;22.20;;
85559;SDS011;76003;49.038;16.594;2024-03-07T12:57:12;37.53;;;23.00;;
85559;SDS011;76003;49.038;16.594;2024-03-07T12:59:38;41.20;;;28.15;;
85559;SDS011;76003;49.038;16.594;2024-03-07T13:02:28;42.95;;;26.08;;
85559;SDS011;76003;49.038;16.594;2024-03-07T13:04:55;42.55;;;28.48;;
85559;SDS011;76003;49.038;16.594;2024-03-07T13:07:36;44.05;;;26.95;;
85559;SDS011;76003;49.038;16.594;2024-03-07T13:10:17;42.88;;;20.73;;
85559;SDS011;76003;49.038;16.594;2024-03-07T13:13:01;42.20;;;23.40;;
85559;SDS011;76003;49.038;16.594;2024-03-07T13:15:43;50.72;;;34.85;;
85559;SDS011;76003;49.038;16.594;2024-03-07T13:18:12;48.58;;;30.67;;
85559;SDS011;76003;49.038;16.594;2024-03-07T13:20:59;42.45;;;25.17;;
85559;SDS011;76003;49.038;16.594;2024-03-07T13:24:28;45.25;;;28.48;;
85559;SDS011;76003;49.038;16.594;2024-03-07T13:30:25;41.58;;;21.48;;
85559;SDS011;76003;49.038;16.594;2024-03-07T13:33:31;47.40;;;27.15;;
85559;SDS011;76003;49.038;16.594;2024-03-07T13:35:58;42.00;;;23.55;;
85559;SDS011;76003;49.038;16.594;2024-03-07T13:39:03;45.22;;;22.58;;
85559;SDS011;76003;49.038;16.594;2024-03-07T13:41:29;40.20;;;20.75;;
85559;SDS011;76003;49.038;16.594;2024-03-07T13:44:33;46.60;;;26.67;;
85559;SDS011;76003;49.038;16.594;2024-03-07T13:47:59;49.28;;;26.00;;
85559;SDS011;76003;49.038;16.594;2024-03-07T13:54:50;55.35;;;33.55;;
85559;SDS011;76003;49.038;16.594;2024-03-07T14:06:42;55.95;;;26.13;;
85559;SDS011;76003;49.038;16.594;2024-03-07T14:18:54;56.53;;;31.50;;
85559;SDS011;76003;49.038;16.594;2024-03-07T14:30:17;49.97;;;27.42;;
85559;SDS011;76003;49.038;16.594;2024-03-07T14:34:19;59.05;;;31.67;;
85559;SDS011;76003;49.038;16.594;2024-03-07T14:37:08;50.42;;;25.17;;
85559;SDS011;76003;49.038;16.594;2024-03-07T14:40:04;56.53;;;31.58;;
85559;SDS011;76003;49.038;16.594;2024-03-07T14:43:35;51.17;;;21.17;;
85559;SDS011;76003;49.038;16.594;2024-03-07T14:49:31;57.25;;;33.17;;
85559;SDS011;76003;49.038;16.594;2024-03-07T14:52:18;56.13;;;31.75;;
85559;SDS011;76003;49.038;16.594;2024-03-07T14:54:46;57.70;;;28.13;;
85559;SDS011;76003;49.038;16.594;2024-03-07T14:57:33;54.50;;;26.33;;
85559;SDS011;76003;49.038;16.594;2024-03-07T15:00:14;55.55;;;33.00;;
85559;SDS011;76003;49.038;16.594;2024-03-07T15:02:47;50.58;;;24.27;;
85559;SDS011;76003;49.038;16.594;2024-03-07T15:06:31;61.00;;;34.88;;
85559;SDS011;76003;49.038;16.594;2024-03-07T15:09:57;49.35;;;21.25;;
85559;SDS011;76003;49.038;16.594;2024-03-07T15:12:23;57.83;;;30.55;;
85559;SDS011;76003;49.038;16.594;2024-03-07T15:15:10;57.60;;;31.95;;
85559;SDS011;76003;49.038;16.594;2024-03-07T15:18:39;58.97;;;28.02;;
85559;SDS011;76003;49.038;16.594;2024-03-07T15:21:04;60.83;;;38.40;;
85559;SDS011;76003;49.038;16.594;2024-03-07T15:23:30;54.95;;;29.40;;
85559;SDS011;76003;49.038;16.594;2024-03-07T15:25:56;60.95;;;26.45;;
85559;SDS011;76003;49.038;16.594;2024-03-07T15:28:59;54.10;;;30.42;;
85559;SDS011;76003;49.038;16.594;2024-03-07T15:31:28;56.03;;;26.80;;
85559;SDS011;76003;49.038;16.594;2024-03-07T15:34:15;60.78;;;32.00;;
85559;SDS011;76003;49.038;16.594;2024-03-07T15:36:59;52.97;;;25.83;;
85559;SDS011;76003;49.038;16.594;2024-03-07T15:39:27;51.78;;;24.85;;
85559;SDS011;76003;49.038;16.594;2024-03-07T15:43:11;53.70;;;26.58;;
85559;SDS011;76003;49.038;16.594;2024-03-07T15:45:53;58.22;;;32.80;;
85559;SDS011;76003;49.038;16.594;2024-03-07T15:48:19;56.90;;;26.95;;
85559;SDS011;76003;49.038;16.594;2024-03-07T15:51:09;61.38;;;33.78;;
85559;SDS011;76003;49.038;16.594;2024-03-07T15:53:52;66.68;;;33.05;;
85559;SDS011;76003;49.038;16.594;2024-03-07T15:56:32;61.90;;;32.55;;
85559;SDS011;76003;49.038;16.594;2024-03-07T15:59:13;63.88;;;32.80;;
85559;SDS011;76003;49.038;16.594;2024-03-07T16:01:40;65.47;;;35.63;;
85559;SDS011;76003;49.038;16.594;2024-03-07T16:04:27;64.22;;;35.65;;
85559;SDS011;76003;49.038;16.594;2024-03-07T16:06:53;55.15;;;25.77;;
85559;SDS011;76003;49.038;16.594;2024-03-07T16:10:35;64.05;;;32.85;;
85559;SDS011;76003;49.038;16.594;2024-03-07T16:13:18;58.10;;;29.30;;
85559;SDS011;76003;49.038;16.594;2024-03-07T16:15:59;51.22;;;25.35;;
85559;SDS011;76003;49.038;16.594;2024-03-07T16:18:40;61.55;;;30.40;;
85559;SDS011;76003;49.038;16.594;2024-03-07T16:21:07;51.85;;;25.20;;
85559;SDS011;76003;49.038;16.594;2024-03-07T16:23:53;63.35;;;34.17;;
85559;SDS011;76003;49.038;16.594;2024-03-07T16:26:22;64.30;;;30.10;;
85559;SDS011;76003;49.038;16.594;2024-03-07T16:29:24;60.08;;;30.00;;
85559;SDS011;76003;49.038;16.594;2024-03-07T16:32:50;62.70;;;31.50;;
85559;SDS011;76003;49.038;16.594;2024-03-07T16:36:23;62.45;;;37.15;;
85559;SDS011;76003;49.038;16.594;2024-03-07T16:39:49;61.28;;;31.70;;
85559;SDS011;76003;49.038;16.594;2024-03-07T16:42:15;55.70;;;29.75;;
85559;SDS011;76003;49.038;16.594;2024-03-07T16:45:02;55.53;;;28.67;;
85559;SDS011;76003;49.038;16.594;2024-03-07T16:47:29;56.28;;;27.10;;
85559;SDS011;76003;49.038;16.594;2024-03-07T16:50:32;61.97;;;28.50;;
85559;SDS011;76003;49.038;16.594;2024-03-07T16:56:23;60.88;;;35.30;;
85559;SDS011;76003;49.038;16.594;2024-03-07T16:59:10;61.97;;;31.92;;
85559;SDS011;76003;49.038;16.594;2024-03-07T17:01:36;67.63;;;36.80;;
85559;SDS011;76003;49.038;16.594;2024-03-07T17:05:19;59.35;;;29.27;;
85559;SDS011;76003;49.038;16.594;2024-03-07T17:08:02;61.45;;;29.15;;
85559;SDS011;76003;49.038;16.594;2024-03-07T17:10:47;60.38;;;29.05;;
85559;SDS011;76003;49.038;16.594;2024-03-07T17:16:09;57.47;;;27.73;;
85559;SDS011;76003;49.038;16.594;2024-03-07T17:18:49;65.47;;;31.45;;
85559;SDS011;76003;49.038;16.594;2024-03-07T17:21:29;58.70;;;28.85;;
85559;SDS011;76003;49.038;16.594;2024-03-07T17:23:56;65.20;;;33.35;;
85559;SDS011;76003;49.038;16.594;2024-03-07T17:26:42;66.95;;;33.55;;
85559;SDS011;76003;49.038;16.594;2024-03-07T17:29:08;67.60;;;31.27;;
85559;SDS011;76003;49.038;16.594;2024-03-07T17:31:55;65.35;;;35.58;;
85559;SDS011;76003;49.038;16.594;2024-03-07T17:34:20;71.85;;;33.53;;
85559;SDS011;76003;49.038;16.594;2024-03-07T17:37:04;63.03;;;33.60;;
85559;SDS011;76003;49.038;16.594;2024-03-07T17:39:30;67.25;;;33.95;;
85559;SDS011;76003;49.038;16.594;2024-03-07T17:42:16;66.97;;;35.13;;
85559;SDS011;76003;49.038;16.594;2024-03-07T17:47:38;61.13;;;31.00;;
85559;SDS011;76003;49.038;16.594;2024-03-07T17:50:21;56.58;;;27.77;;
85559;SDS011;76003;49.038;16.594;2024-03-07T17:53:04;60.90;;;29.30;;
85559;SDS011;76003;49.038;16.594;2024-03-07T17:55:49;66.20;;;33.80;;
85559;SDS011;76003;49.038;16.594;2024-03-07T17:58:30;63.83;;;32.22;;
85559;SDS011;76003;49.038;16.594;2024-03-07T18:00:58;56.17;;;26.67;;
85559;SDS011;76003;49.038;16.594;2024-03-07T18:03:44;57.53;;;26.00;;
85559;SDS011;76003;49.038;16.594;2024-03-07T18:06:27;55.75;;;26.35;;
85559;SDS011;76003;49.038;16.594;2024-03-07T18:09:07;60.28;;;31.63;;